Time;durP1;ratioP1;P1;durP2;ratioP2;P2;SDS_P1;SDS_P2;PMS_P1;PMS_P2;Temp;Humidity;BMP_temperature;BMP_pressure;BME280_temperature;BME280_humidity;BME280_pressure;Samples;Min_cycle;Max_cycle;Signal;HPM_P1;HPM_P2
2021/03/24 00:00:50;;;;;;;11.60;2.67;;;5.30;98.00;;;4.87;59.97;101292.38;5004210;28;20078;-52
2021/03/24 00:03:17;;;;;;;6.70;2.55;;;5.30;97.50;;;4.86;60.09;101293.28;4991516;28;20060;-53
2021/03/24 00:05:51;;;;;;;12.23;4.32;;;5.40;97.00;;;4.65;60.80;101296.19;4994369;28;20498;-54
2021/03/24 00:08:21;;;;;;;10.57;4.78;;;5.30;97.40;;;4.50;61.49;101301.38;4995189;28;20092;-52
2021/03/24 00:10:49;;;;;;;6.63;3.55;;;5.10;97.90;;;4.59;60.96;101306.03;5001626;28;20049;-50
2021/03/24 00:13:15;;;;;;;9.20;2.75;;;5.10;97.80;;;4.68;60.44;101300.34;4982673;28;20038;-53
2021/03/24 00:15:42;;;;;;;5.82;3.08;;;5.10;97.50;;;4.76;60.24;101300.72;5002436;28;20030;-51
2021/03/24 00:18:10;;;;;;;9.60;3.53;;;5.20;97.30;;;4.71;60.63;101304.50;5005518;28;20041;-57
2021/03/24 00:20:39;;;;;;;6.45;2.53;;;5.20;97.10;;;4.67;60.41;101303.84;5006905;28;20026;-49
2021/03/24 00:23:06;;;;;;;7.22;3.17;;;5.20;97.10;;;4.63;60.30;101304.94;5007619;28;20136;-54
2021/03/24 00:25:33;;;;;;;5.82;3.30;;;5.20;96.90;;;4.63;59.94;101307.50;5007155;28;20042;-55
2021/03/24 00:28:00;;;;;;;6.00;2.42;;;5.10;96.60;;;4.63;59.95;101304.94;5007230;28;20543;-49
2021/03/24 00:30:34;;;;;;;10.20;2.17;;;5.20;96.20;;;4.56;60.61;101319.09;5007258;28;20662;-53
2021/03/24 00:33:00;;;;;;;10.60;2.78;;;5.10;96.60;;;4.51;61.15;101308.19;5010241;28;20449;-46
2021/03/24 00:35:27;;;;;;;10.00;3.42;;;5.10;97.30;;;4.44;61.10;101312.84;5010732;28;20430;-46
2021/03/24 00:37:54;;;;;;;7.70;3.22;;;5.00;97.80;;;4.33;61.36;101310.84;5010871;28;20120;-55
2021/03/24 00:40:32;;;;;;;5.47;3.17;;;4.90;97.80;;;4.40;61.96;101310.53;5011005;28;20083;-48
2021/03/24 00:42:58;;;;;;;5.88;2.95;;;4.90;98.50;;;4.41;61.79;101307.03;5010527;28;20493;-51
2021/03/24 00:45:24;;;;;;;7.38;2.38;;;5.00;98.90;;;4.40;61.42;101302.78;5010375;28;20042;-55
2021/03/24 00:47:50;;;;;;;3.92;1.75;;;4.90;98.30;;;4.43;61.17;101300.88;5010897;28;20472;-51
2021/03/24 00:50:20;;;;;;;8.93;2.78;;;4.90;97.80;;;4.50;60.32;101296.22;5010441;28;20034;-46
2021/03/24 00:52:47;;;;;;;5.15;2.10;;;5.00;97.20;;;4.47;60.31;101297.22;5010709;28;20075;-54
2021/03/24 00:55:14;;;;;;;4.50;2.05;;;5.00;96.80;;;4.42;60.25;101298.38;5009784;28;20534;-50
2021/03/24 00:57:41;;;;;;;6.50;2.40;;;4.90;96.80;;;4.45;59.96;101298.22;5010798;28;20040;-52
2021/03/24 01:00:20;;;;;;;8.88;2.50;;;5.00;96.30;;;4.41;60.14;101302.69;5009297;28;20041;-51
2021/03/24 01:02:46;;;;;;;7.72;2.00;;;5.00;96.20;;;4.40;59.79;101301.03;5007752;28;20042;-58
2021/03/24 01:05:16;;;;;;;4.72;2.25;;;4.90;95.80;;;4.37;59.63;101293.47;5010022;28;20060;-53
2021/03/24 01:07:46;;;;;;;7.80;2.38;;;4.90;95.30;;;4.38;59.36;101292.56;5010630;28;20543;-56
2021/03/24 01:10:23;;;;;;;4.93;1.85;;;4.90;95.20;;;4.44;58.73;101296.53;5009805;28;20040;-50
2021/03/24 01:12:49;;;;;;;6.57;2.17;;;4.90;94.60;;;4.38;59.09;101296.88;5010496;28;20610;-50
2021/03/24 01:15:16;;;;;;;4.90;1.98;;;4.90;94.50;;;4.47;58.37;101291.22;5009694;28;20042;-52
2021/03/24 01:17:42;;;;;;;3.45;1.63;;;4.90;93.70;;;4.43;58.14;101287.13;5010337;28;20469;-51
2021/03/24 01:20:09;;;;;;;4.70;1.98;;;5.00;93.50;;;4.31;58.50;101292.06;5009106;28;20074;-58
2021/03/24 01:22:35;;;;;;;11.15;2.88;;;4.90;93.50;;;4.16;59.24;101302.41;5009711;28;20088;-54
2021/03/24 01:25:01;;;;;;;5.40;1.88;;;4.80;93.90;;;4.25;58.69;101286.44;5010189;28;20117;-54
2021/03/24 01:27:27;;;;;;;8.65;2.50;;;4.80;93.80;;;4.19;59.15;101295.31;5009910;28;20056;-50
2021/03/24 01:29:53;;;;;;;4.45;1.80;;;4.70;94.00;;;4.19;59.00;101282.44;4992437;28;20034;-55
2021/03/24 01:32:19;;;;;;;5.10;1.50;;;4.70;94.20;;;4.30;58.94;101292.97;5009540;28;20050;-55
2021/03/24 01:34:44;;;;;;;5.20;1.90;;;4.80;94.10;;;4.34;58.37;101289.31;5009982;28;20433;-49
2021/03/24 01:37:10;;;;;;;5.18;2.05;;;4.90;93.70;;;4.38;58.37;101286.56;5009967;28;20069;-55
2021/03/24 01:39:37;;;;;;;4.47;1.75;;;4.90;93.20;;;4.36;58.19;101286.63;5009147;28;20153;-51
2021/03/24 01:42:05;;;;;;;5.53;2.03;;;4.90;93.00;;;4.40;57.70;101284.72;5010167;28;20061;-57
2021/03/24 01:44:31;;;;;;;6.07;1.60;;;4.90;92.70;;;4.38;57.55;101286.56;5008345;28;20104;-52
2021/03/24 01:46:57;;;;;;;4.38;1.50;;;4.90;92.30;;;4.42;57.30;101290.63;5010140;28;20042;-53
2021/03/24 01:49:36;;;;;;;5.47;1.35;;;4.90;92.00;;;4.34;57.34;101285.91;5009883;28;20041;-48
2021/03/24 01:52:03;;;;;;;7.53;2.17;;;4.80;91.90;;;4.31;57.70;101291.22;4976165;28;20044;-49
2021/03/24 01:54:42;;;;;;;5.30;1.83;;;4.90;92.00;;;4.29;57.76;101287.88;5009423;28;20038;-52
2021/03/24 01:57:17;;;;;;;8.27;2.90;;;4.80;92.20;;;4.09;58.63;101289.00;5009856;28;20189;-58
2021/03/24 01:59:43;;;;;;;6.05;2.35;;;4.70;92.50;;;4.04;59.02;101288.41;4975982;28;20474;-50
2021/03/24 02:02:17;;;;;;;3.97;1.38;;;4.60;93.10;;;4.14;58.96;101287.00;5008201;28;20056;-52
2021/03/24 02:04:43;;;;;;;6.95;1.88;;;4.60;93.50;;;4.21;58.36;101290.91;4993177;28;20481;-48
2021/03/24 02:07:21;;;;;;;5.95;1.92;;;4.70;93.10;;;4.21;58.40;101287.50;5008937;28;20034;-53
2021/03/24 02:10:14;;;;;;;4.32;1.65;;;4.70;92.80;;;4.25;58.29;101284.66;4991542;28;20477;-53
2021/03/24 02:13:02;;;;;;;8.00;1.75;;;4.70;92.50;;;4.14;58.46;101291.34;4995074;28;20588;-54
2021/03/24 02:15:41;;;;;;;7.63;1.80;;;4.70;92.90;;;4.16;58.35;101284.34;5009310;28;20057;-55
2021/03/24 02:18:10;;;;;;;5.82;2.50;;;4.70;92.60;;;4.22;57.83;101274.53;4992878;28;20037;-51
2021/03/24 02:20:41;;;;;;;8.75;1.42;;;4.70;92.30;;;4.23;57.65;101280.50;4991547;28;20041;-51
2021/03/24 02:23:25;;;;;;;5.53;1.27;;;4.80;92.10;;;4.21;57.82;101274.59;4991172;28;20537;-53
2021/03/24 02:26:10;;;;;;;6.18;1.70;;;4.70;92.30;;;4.19;58.00;101285.00;5008816;28;20042;-57
2021/03/24 02:28:40;;;;;;;7.45;1.35;;;4.70;92.20;;;4.09;58.23;101278.69;4993164;28;20050;-55
2021/03/24 02:31:08;;;;;;;2.58;1.65;;;4.70;92.40;;;4.03;58.49;101284.16;4991496;28;20025;-51
2021/03/24 02:33:39;;;;;;;3.20;1.30;;;4.60;92.60;;;3.97;59.02;101295.63;4997119;28;20272;-55
2021/03/24 02:36:11;;;;;;;6.80;1.33;;;4.50;93.00;;;3.97;59.14;101287.06;4991876;28;20068;-53
2021/03/24 02:38:40;;;;;;;6.53;1.30;;;4.50;93.20;;;3.96;58.96;101290.56;4991027;28;20037;-56
2021/03/24 02:41:08;;;;;;;6.60;1.75;;;4.50;93.30;;;3.84;59.70;101292.03;4974815;28;20042;-55
2021/03/24 02:43:35;;;;;;;5.82;2.00;;;4.40;93.80;;;3.77;59.79;101289.91;5008777;28;20120;-59
2021/03/24 02:46:08;;;;;;;3.40;1.38;;;4.30;94.30;;;3.66;60.22;101293.03;4990941;28;20041;-53
2021/03/24 02:48:38;;;;;;;3.85;1.65;;;4.30;94.50;;;3.58;60.64;101293.44;4992145;28;20034;-53
2021/03/24 02:51:12;;;;;;;7.25;2.22;;;4.20;94.90;;;3.59;61.16;101297.66;4898664;23;20235;-49
2021/03/24 02:53:40;;;;;;;3.92;1.60;;;4.20;95.10;;;3.54;60.93;101291.09;4991476;28;20472;-54
2021/03/24 02:56:10;;;;;;;4.55;1.70;;;4.10;95.30;;;3.49;60.86;101301.63;5008871;28;20381;-51
2021/03/24 02:58:37;;;;;;;4.70;1.35;;;4.10;95.70;;;3.56;60.43;101297.81;5008820;28;20030;-51
2021/03/24 03:01:22;;;;;;;3.92;1.52;;;4.00;95.50;;;3.54;60.96;101291.91;4991216;28;20037;-51
2021/03/24 03:04:05;;;;;;;3.42;1.23;;;4.00;95.80;;;3.57;60.82;101294.34;5009112;28;20044;-51
2021/03/24 03:06:31;;;;;;;4.82;1.80;;;4.10;95.60;;;3.49;60.33;101299.06;5008728;28;20042;-53
2021/03/24 03:09:19;;;;;;;3.78;1.55;;;4.00;95.70;;;3.38;61.37;101303.91;5008760;28;20045;-49
2021/03/24 03:12:18;;;;;;;7.07;1.70;;;4.00;95.80;;;3.43;60.99;101301.94;4992208;28;20054;-53
2021/03/24 03:15:13;;;;;;;13.73;1.50;;;4.00;95.80;;;3.48;60.63;101299.97;5008630;28;20034;-58
2021/03/24 03:18:18;;;;;;;4.75;1.35;;;4.00;95.50;;;3.41;60.79;101303.75;5008541;28;20265;-53
2021/03/24 03:20:49;;;;;;;4.88;2.03;;;4.00;95.60;;;3.45;60.33;101305.28;5003677;28;20042;-53
2021/03/24 03:23:19;;;;;;;5.75;1.48;;;3.90;95.40;;;3.47;60.17;101297.47;5008418;28;20038;-55
2021/03/24 03:26:06;;;;;;;3.20;1.48;;;4.00;95.40;;;3.47;60.40;101307.78;4991084;28;20532;-55
2021/03/24 03:28:35;;;;;;;4.93;1.55;;;4.00;95.30;;;3.47;60.02;101302.63;4991327;28;20083;-52
2021/03/24 03:31:04;;;;;;;3.00;1.50;;;4.00;95.20;;;3.50;60.04;101303.28;4991202;28;20053;-48
2021/03/24 03:33:35;;;;;;;4.72;1.58;;;4.00;95.00;;;3.47;60.28;101305.19;4990926;28;20507;-52
2021/03/24 03:36:01;;;;;;;8.38;2.28;;;4.00;95.20;;;3.39;60.60;101295.28;4990920;28;20037;-56
2021/03/24 03:38:30;;;;;;;4.75;1.60;;;4.00;95.70;;;3.39;60.67;101305.56;5007443;28;20359;-55
2021/03/24 03:40:59;;;;;;;8.85;1.50;;;3.90;95.60;;;3.40;60.48;101306.41;4990832;28;20429;-58
2021/03/24 03:43:26;;;;;;;6.30;1.52;;;3.90;95.70;;;3.36;60.77;101304.91;4990381;28;20046;-53
2021/03/24 03:45:55;;;;;;;2.45;0.77;;;3.90;95.90;;;3.31;60.94;101311.13;4990658;28;20060;-55
2021/03/24 03:48:22;;;;;;;4.60;1.70;;;3.90;96.00;;;3.41;60.53;101311.50;4991012;28;20033;-55
2021/03/24 03:51:01;;;;;;;3.53;1.35;;;3.90;95.80;;;3.41;60.63;101306.34;5008128;28;20108;-54
2021/03/24 03:53:39;;;;;;;4.03;1.58;;;3.90;95.80;;;3.38;60.39;101309.06;4991924;28;20057;-54
2021/03/24 03:56:47;;;;;;;4.50;1.38;;;3.90;95.60;;;3.41;60.10;101311.50;4991198;28;20052;-52
2021/03/24 03:59:44;;;;;;;4.70;1.40;;;3.90;95.30;;;3.38;60.94;101309.06;4940387;28;20046;-56
2021/03/24 04:02:16;;;;;;;3.80;1.60;;;3.90;95.40;;;3.36;60.64;101310.06;4991237;28;20169;-55
2021/03/24 04:04:53;;;;;;;3.70;1.73;;;3.90;95.60;;;3.33;60.97;101314.44;4990483;28;20489;-57
2021/03/24 04:07:44;;;;;;;3.92;1.17;;;3.90;95.90;;;3.23;61.93;101307.28;5010336;28;20044;-54
2021/03/24 04:10:11;;;;;;;4.75;1.60;;;3.80;96.50;;;3.15;61.79;101307.66;5012450;28;20366;-56
2021/03/24 04:12:40;;;;;;;3.78;1.48;;;3.70;96.80;;;3.16;61.47;101301.59;5012164;28;20126;-54
2021/03/24 04:15:15;;;;;;;8.00;1.48;;;3.70;97.00;;;3.22;61.40;101308.19;4994510;28;20409;-56
2021/03/24 04:18:01;;;;;;;5.90;1.73;;;3.70;96.80;;;3.22;61.50;101313.34;5011980;28;20030;-52
2021/03/24 04:20:30;;;;;;;8.25;1.42;;;3.70;96.60;;;3.15;61.25;101317.13;4995667;28;20037;-53
2021/03/24 04:22:57;;;;;;;6.55;1.63;;;3.70;96.60;;;3.12;61.33;101306.97;4994451;28;20128;-53
2021/03/24 04:26:13;;;;;;;4.00;1.02;;;3.70;96.50;;;3.08;61.65;101310.63;5011778;28;20108;-54
2021/03/24 04:28:44;;;;;;;5.65;1.25;;;3.60;96.70;;;3.13;61.27;101308.66;4997531;28;20116;-54
2021/03/24 04:31:14;;;;;;;3.70;1.48;;;3.60;96.60;;;3.14;61.05;101312.91;5011735;28;20038;-56
2021/03/24 04:33:41;;;;;;;5.32;1.48;;;3.70;96.50;;;3.11;61.51;101311.31;4993844;28;20034;-56
2021/03/24 04:36:32;;;;;;;11.25;1.77;;;3.60;96.70;;;3.04;61.71;101312.50;5011362;28;20045;-48
2021/03/24 04:39:13;;;;;;;5.38;1.42;;;3.60;96.80;;;3.04;61.64;101303.94;4994923;28;20046;-58
2021/03/24 04:41:46;;;;;;;4.35;1.30;;;3.60;97.00;;;3.02;61.70;101305.78;4995006;28;20136;-56
2021/03/24 04:44:31;;;;;;;5.65;1.20;;;3.60;97.00;;;3.11;61.76;101310.47;4994159;28;20034;-50
2021/03/24 04:47:36;;;;;;;5.32;1.40;;;3.60;97.30;;;3.04;62.25;101309.94;5011133;28;20038;-51
2021/03/24 04:50:32;;;;;;;4.45;1.08;;;3.60;97.40;;;2.99;62.48;101306.75;5011341;28;20061;-54
2021/03/24 04:53:03;;;;;;;3.97;0.93;;;3.50;97.50;;;2.99;61.82;101307.59;5011184;28;20065;-57
2021/03/24 04:55:31;;;;;;;3.63;1.65;;;3.50;97.20;;;2.99;61.36;101310.16;5011052;28;20046;-53
2021/03/24 04:58:01;;;;;;;2.95;1.38;;;3.50;97.10;;;3.07;61.04;101308.94;4993303;28;20556;-57
2021/03/24 05:00:39;;;;;;;4.68;1.50;;;3.60;96.60;;;3.19;60.47;101316.06;4993304;28;20053;-57
2021/03/24 05:03:11;;;;;;;6.28;1.17;;;3.70;96.00;;;3.19;60.33;101313.50;5011080;28;20049;-60
2021/03/24 05:05:47;;;;;;;2.65;1.10;;;3.70;96.00;;;3.23;60.16;101326.16;5010770;28;20041;-58
2021/03/24 05:08:42;;;;;;;5.50;1.30;;;3.70;95.40;;;3.26;60.45;101317.44;4993992;28;20184;-52
2021/03/24 05:12:02;;;;;;;2.92;1.08;;;3.80;95.50;;;3.23;60.17;101323.56;4993482;28;20034;-56
2021/03/24 05:14:35;;;;;;;7.63;1.05;;;3.80;95.40;;;3.22;60.00;101329.63;5006608;28;20141;-56
2021/03/24 05:17:12;;;;;;;4.05;1.60;;;3.80;95.30;;;3.17;60.82;101331.59;5010091;28;20484;-55
2021/03/24 05:19:38;;;;;;;6.22;1.42;;;3.80;95.80;;;3.12;61.05;101336.16;5010537;28;20065;-55
2021/03/24 05:22:16;;;;;;;6.90;1.75;;;3.70;96.10;;;3.15;61.13;101337.75;4993228;28;20033;-53
2021/03/24 05:24:43;;;;;;;5.78;2.28;;;3.70;96.00;;;3.17;61.93;101334.19;5010499;28;20492;-54
2021/03/24 05:27:32;;;;;;;2.15;0.70;;;3.70;97.00;;;3.17;61.70;101346.22;4992564;28;20167;-59
2021/03/24 05:30:24;;;;;;;5.80;1.45;;;3.70;96.80;;;3.15;61.39;101353.19;4993220;28;20033;-52
2021/03/24 05:33:03;;;;;;;2.60;1.20;;;3.70;96.60;;;3.17;61.24;101359.09;5009623;28;20038;-58
2021/03/24 05:35:58;;;;;;;4.68;1.30;;;3.70;96.50;;;4.30;57.94;101357.47;5010308;28;20520;-52
2021/03/24 05:38:31;;;;;;;4.03;1.60;;;4.60;94.70;;;5.62;54.25;101349.09;5010359;28;20038;-55
2021/03/24 05:41:10;;;;;;;4.03;1.80;;;6.20;90.00;;;6.39;51.92;101355.59;5010275;28;20033;-56
2021/03/24 05:44:14;;;;;;;4.00;2.08;;;7.50;81.00;;;6.79;51.14;101353.06;5010142;28;20042;-56
2021/03/24 05:47:06;;;;;;;6.07;1.60;;;8.30;73.90;;;6.74;51.51;101352.53;5010085;28;20604;-54
2021/03/24 05:49:55;;;;;;;4.57;1.83;;;8.50;72.10;;;6.81;51.64;101353.78;5009991;28;20124;-56
2021/03/24 05:52:47;;;;;;;8.23;1.83;;;8.70;69.50;;;7.53;48.62;101358.50;4988640;28;20081;-51
2021/03/24 05:55:32;;;;;;;4.85;1.80;;;9.50;66.40;;;7.25;48.80;101362.09;4990527;28;20070;-58
2021/03/24 05:58:23;;;;;;;5.18;1.50;;;10.00;62.20;;;7.14;49.66;101371.47;4990336;28;20088;-58
2021/03/24 06:01:28;;;;;;;5.78;1.63;;;9.80;62.00;;;7.27;49.71;101372.34;4990183;28;20129;-56
2021/03/24 06:04:21;;;;;;;4.47;1.25;;;9.90;61.90;;;6.87;51.72;101372.38;4989014;28;20034;-48
2021/03/24 06:07:34;;;;;;;6.72;1.65;;;10.00;60.80;;;6.89;49.65;101380.03;4988696;28;20343;-51
2021/03/24 06:10:12;;;;;;;2.97;1.13;;;9.90;61.30;;;6.64;51.30;101372.97;4990187;28;20058;-50
2021/03/24 06:13:19;;;;;;;7.38;2.28;;;9.60;61.60;;;6.92;50.41;101372.91;4990134;28;20050;-53
2021/03/24 06:16:06;;;;;;;5.95;2.40;;;9.90;61.00;;;7.32;49.57;101367.69;4988635;28;20049;-51
2021/03/24 06:19:07;;;;;;;3.97;1.38;;;10.40;58.70;;;7.33;47.91;101369.34;4990116;28;20054;-53
2021/03/24 06:21:47;;;;;;;6.60;2.15;;;10.60;57.10;;;7.45;48.28;101365.94;4989701;28;20031;-56
2021/03/24 06:24:40;;;;;;;7.55;2.00;;;10.60;57.30;;;7.43;48.15;101373.00;4988696;28;20045;-54
2021/03/24 06:27:23;;;;;;;6.82;1.73;;;10.00;57.60;;;6.78;49.24;101374.72;4989659;28;20058;-54
2021/03/24 06:30:18;;;;;;;7.00;1.25;;;8.80;60.60;;;6.33;50.59;101368.91;4972632;28;20038;-54
2021/03/24 06:33:40;;;;;;;3.50;1.35;;;7.70;64.60;;;5.75;52.44;101377.59;4988758;28;20026;-50
2021/03/24 06:36:23;;;;;;;4.93;1.45;;;6.90;68.40;;;5.52;53.97;101376.38;4988318;28;20042;-52
2021/03/24 06:39:32;;;;;;;6.07;2.17;;;6.40;71.60;;;5.58;53.84;101381.22;4988522;28;20056;-48
2021/03/24 06:42:36;;;;;;;4.80;1.60;;;6.30;72.20;;;5.43;53.67;101387.25;4987624;28;20065;-52
2021/03/24 06:45:24;;;;;;;5.63;1.60;;;6.10;73.20;;;5.43;53.95;101381.25;4988914;28;20039;-55
2021/03/24 06:48:01;;;;;;;5.28;2.05;;;6.00;74.10;;;5.63;53.67;101380.94;4989652;28;20068;-49
2021/03/24 06:50:49;;;;;;;6.78;2.33;;;6.10;75.10;;;5.75;52.69;101387.13;4987713;28;20070;-54
2021/03/24 06:53:54;;;;;;;6.18;2.30;;;6.30;73.80;;;5.81;53.21;101381.56;4994541;23;20543;-52
2021/03/24 06:57:08;;;;;;;6.18;1.63;;;6.30;74.30;;;5.88;53.05;101388.06;4968749;28;20498;-51
2021/03/24 07:00:17;;;;;;;5.35;2.03;;;6.50;74.20;;;6.19;51.93;101387.03;4957043;28;20066;-54
2021/03/24 07:03:20;;;;;;;7.07;1.52;;;6.70;73.80;;;6.10;53.48;101392.81;4964010;28;20027;-49
2021/03/24 07:05:56;;;;;;;6.07;1.65;;;6.70;75.70;;;6.17;51.11;101404.41;4964241;28;20509;-53
2021/03/24 07:08:59;;;;;;;5.28;2.13;;;6.90;72.40;;;6.35;51.04;101405.06;4963027;28;20377;-51
2021/03/24 07:11:51;;;;;;;3.45;1.80;;;7.10;71.80;;;6.54;50.80;101410.78;4963972;28;20090;-52
2021/03/24 07:15:06;;;;;;;5.03;1.40;;;7.10;71.40;;;6.84;48.94;101405.41;4962927;28;20485;-50
2021/03/24 07:18:00;;;;;;;2.78;1.20;;;7.30;71.10;;;6.92;49.43;101411.75;4968736;28;20158;-55
2021/03/24 07:21:00;;;;;;;4.22;1.58;;;7.40;70.10;;;7.14;49.09;101400.00;4968890;28;20047;-55
2021/03/24 07:23:35;;;;;;;6.03;1.90;;;7.60;69.80;;;7.38;48.36;101402.75;4967971;28;20042;-54
2021/03/24 07:26:10;;;;;;;4.87;1.57;;;7.80;69.30;;;7.39;48.33;101400.06;4969269;28;20101;-46
2021/03/24 07:29:02;;;;;;;4.10;1.88;;;7.90;69.20;;;7.60;47.53;101405.56;4969691;28;20425;-51
2021/03/24 07:32:10;;;;;;;4.07;1.55;;;8.10;68.70;;;7.79;47.45;101402.56;4968181;28;20465;-51
2021/03/24 07:35:19;;;;;;;4.88;1.35;;;8.20;68.70;;;7.85;46.78;101403.00;4969545;28;20047;-52
2021/03/24 07:38:37;;;;;;;4.97;1.50;;;8.30;67.70;;;8.07;46.64;101409.28;4969451;28;20043;-47
2021/03/24 07:41:27;;;;;;;3.33;1.35;;;8.50;67.30;;;8.40;46.79;101414.78;4966079;28;20157;-51
2021/03/24 07:44:33;;;;;;;5.10;1.48;;;8.80;67.30;;;8.69;44.74;101412.72;4962930;28;20109;-52
2021/03/24 07:47:45;;;;;;;4.75;1.23;;;9.10;65.60;;;8.64;44.75;101413.03;4965174;28;20066;-49
2021/03/24 07:50:36;;;;;;;3.50;1.02;;;9.10;63.50;;;8.96;43.26;101421.16;4963482;28;20042;-50
2021/03/24 07:53:32;;;;;;;7.75;1.13;;;9.30;62.90;;;9.14;42.59;101413.75;4956578;28;20410;-46
2021/03/24 07:56:15;;;;;;;5.63;1.30;;;9.40;63.00;;;9.70;43.49;101407.88;4986977;28;20053;-50
2021/03/24 07:59:18;;;;;;;2.70;0.82;;;9.90;63.40;;;10.13;41.35;101408.88;4968986;28;20069;-46
2021/03/24 08:01:49;;;;;;;3.08;1.35;;;10.40;61.30;;;10.18;42.08;101405.91;4970499;28;20049;-48
2021/03/24 08:04:58;;;;;;;1.80;0.90;;;10.60;60.00;;;10.58;40.80;101408.84;4987744;28;20046;-46
2021/03/24 08:07:49;;;;;;;3.88;0.70;;;10.90;59.20;;;10.87;40.47;101414.34;4979680;28;20525;-47
2021/03/24 08:11:18;;;;;;;4.90;1.10;;;11.20;58.10;;;10.69;38.37;101411.44;4976986;28;20089;-49
2021/03/24 08:14:27;;;;;;;3.55;1.02;;;11.20;56.20;;;10.46;38.50;101409.81;4908967;29;20449;-48
2021/03/24 08:17:35;;;;;;;4.22;0.98;;;11.00;56.50;;;10.83;38.80;101408.56;4906851;29;20062;-48
2021/03/24 08:20:24;;;;;;;3.30;0.98;;;11.10;56.90;;;10.94;38.57;101405.88;4927808;29;20550;-52
2021/03/24 08:22:59;;;;;;;5.72;1.10;;;11.30;56.50;;;11.03;39.91;101400.88;4922499;29;20520;-56
2021/03/24 08:26:02;;;;;;;4.55;1.23;;;11.40;55.90;;;11.15;38.80;101400.72;4927068;29;20044;-58
2021/03/24 08:28:53;;;;;;;6.50;1.10;;;11.60;55.50;;;11.38;38.55;101395.38;4913467;29;20052;-52
2021/03/24 08:31:58;;;;;;;2.42;1.13;;;11.80;55.60;;;11.49;37.18;101393.53;4924991;29;20259;-57
2021/03/24 08:35:05;;;;;;;2.85;0.82;;;12.00;53.90;;;11.67;37.71;101383.34;4919084;29;20415;-51
2021/03/24 08:38:03;;;;;;;3.65;0.90;;;12.10;54.50;;;11.26;37.10;101390.25;4910991;29;20569;-53
2021/03/24 08:41:05;;;;;;;3.47;0.90;;;12.00;52.50;;;11.58;37.85;101391.94;4924453;29;20515;-48
2021/03/24 08:44:11;;;;;;;3.08;0.85;;;11.90;55.00;;;11.87;36.43;101395.53;4908787;29;20048;-55
2021/03/24 08:46:51;;;;;;;5.47;1.10;;;12.20;53.10;;;11.84;37.10;101395.81;4926582;28;20074;-54
2021/03/24 08:49:26;;;;;;;3.17;1.23;;;12.30;52.30;;;11.77;37.55;101388.66;4963074;28;20113;-53
2021/03/24 08:51:52;;;;;;;3.45;0.63;;;12.20;53.30;;;12.23;37.45;101381.13;4960644;28;20066;-51
2021/03/24 08:54:57;;;;;;;3.40;0.77;;;12.50;53.20;;;12.40;33.82;101387.50;4973205;28;20058;-51
2021/03/24 08:57:37;;;;;;;4.25;0.80;;;12.80;50.20;;;12.42;35.06;101380.34;4988722;28;20132;-49
2021/03/24 09:00:19;;;;;;;4.55;0.90;;;12.70;49.90;;;12.65;35.46;101382.72;4973659;28;20493;-50
2021/03/24 09:03:32;;;;;;;6.57;2.40;;;12.90;51.40;;;13.26;33.67;101375.44;4992014;28;20065;-51
2021/03/24 09:06:45;;;;;;;35.63;19.83;;;13.40;51.20;;;13.48;33.86;101382.16;4987349;28;20331;-56
2021/03/24 09:10:06;;;;;;;22.40;10.00;;;13.70;50.40;;;13.71;33.19;101372.16;4893158;29;20559;-56
2021/03/24 09:13:06;;;;;;;6.18;2.13;;;13.90;50.60;;;13.80;34.44;101373.94;4910224;29;20055;-56
2021/03/24 09:15:56;;;;;;;2.08;0.95;;;14.10;50.50;;;13.67;32.83;101376.06;4910439;29;20083;-54
2021/03/24 09:18:37;;;;;;;4.15;2.33;;;14.10;48.60;;;13.61;33.53;101369.59;4906574;29;20119;-52
2021/03/24 09:21:33;;;;;;;7.78;3.30;;;14.00;48.90;;;13.97;32.32;101373.19;4904558;29;20512;-55
2021/03/24 09:24:37;;;;;;;31.38;15.00;;;14.20;48.80;;;14.03;32.61;101374.41;4906857;29;20096;-51
2021/03/24 09:27:31;;;;;;;6.07;2.90;;;14.30;48.60;;;14.35;31.70;101361.66;4900008;29;20132;-54
2021/03/24 09:30:25;;;;;;;4.50;1.00;;;14.60;47.40;;;13.96;32.68;101358.44;4893362;29;20127;-53
2021/03/24 09:33:14;;;;;;;69.28;7.15;;;14.50;47.10;;;14.21;33.11;101355.13;4894058;29;20424;-48
2021/03/24 09:36:18;;;;;;;73.28;9.70;;;14.50;48.80;;;14.57;31.71;101347.38;4908558;29;20069;-53
2021/03/24 09:38:47;;;;;;;90.95;11.68;;;14.70;48.20;;;14.48;33.38;101348.25;4908723;29;20063;-51
2021/03/24 09:41:30;;;;;;;22.88;2.53;;;14.90;47.80;;;14.42;31.92;101343.59;4979350;28;20066;-53
2021/03/24 09:44:20;;;;;;;13.85;2.42;;;14.80;47.20;;;14.88;31.46;101348.63;4972549;28;20038;-51
2021/03/24 09:46:50;;;;;;;11.27;3.80;;;15.10;47.00;;;14.75;32.24;101340.28;4974203;28;20046;-55
2021/03/24 09:49:29;;;;;;;7.22;1.83;;;15.10;47.00;;;14.76;32.54;101341.94;4958319;28;20525;-56
2021/03/24 09:52:34;;;;;;;6.85;0.90;;;15.20;46.80;;;14.73;30.72;101337.00;4974348;28;20100;-54
2021/03/24 09:55:03;;;;;;;4.38;1.38;;;15.20;45.90;;;14.84;32.24;101336.78;4976075;28;20059;-52
2021/03/24 09:57:59;;;;;;;5.40;1.13;;;15.20;46.60;;;14.85;31.45;101335.81;4971633;28;20035;-55
2021/03/24 10:00:28;;;;;;;6.70;1.10;;;15.30;45.90;;;14.63;32.32;101336.28;4970509;28;20039;-47
2021/03/24 10:03:15;;;;;;;5.40;1.20;;;15.10;46.30;;;14.76;32.30;101323.59;4962618;28;20390;-54
2021/03/24 10:06:18;;;;;;;5.20;1.83;;;15.20;46.20;;;14.47;30.23;101323.81;4974767;28;20101;-46
2021/03/24 10:09:02;;;;;;;5.13;1.98;;;15.00;46.10;;;14.61;32.33;101327.72;4957768;28;20050;-51
2021/03/24 10:11:39;;;;;;;6.10;2.25;;;14.90;47.00;;;15.12;31.95;101320.94;4981537;28;20050;-51
2021/03/24 10:14:14;;;;;;;6.90;3.22;;;15.30;46.60;;;15.25;31.45;101316.91;4972272;28;20046;-52
2021/03/24 10:16:47;;;;;;;5.53;2.00;;;15.50;46.30;;;15.10;30.30;101317.63;4961459;28;20531;-50
2021/03/24 10:19:34;;;;;;;3.65;1.60;;;15.50;45.10;;;15.02;30.47;101304.44;4972217;28;20027;-54
2021/03/24 10:22:49;;;;;;;4.65;1.85;;;15.40;44.50;;;14.87;29.91;101302.38;4966682;28;20121;-52
2021/03/24 10:25:20;;;;;;;5.05;1.45;;;15.30;44.50;;;15.19;30.98;101296.50;4970302;28;20106;-51
2021/03/24 10:27:50;;;;;;;2.33;1.40;;;15.50;45.10;;;15.22;30.69;101298.00;4970273;28;20035;-47
2021/03/24 10:30:34;;;;;;;2.63;1.25;;;15.60;44.20;;;14.98;30.74;101297.88;4973866;28;20043;-53
2021/03/24 10:33:24;;;;;;;3.67;1.40;;;15.40;44.30;;;15.11;29.93;101285.16;4989749;28;20069;-52
2021/03/24 10:36:02;;;;;;;7.15;2.30;;;15.50;44.00;;;15.34;30.81;101282.81;4980925;28;20058;-52
2021/03/24 10:38:59;;;;;;;4.10;1.55;;;15.70;44.90;;;15.45;29.48;101282.56;4970398;28;20053;-49
2021/03/24 10:41:34;;;;;;;5.90;1.77;;;15.90;44.10;;;15.17;31.22;101281.91;4970814;28;20502;-41
2021/03/24 10:44:39;;;;;;;5.85;1.95;;;15.70;44.50;;;15.64;29.85;101279.72;4970091;28;20047;-50
2021/03/24 10:47:53;;;;;;;5.07;2.00;;;15.80;45.00;;;15.41;30.51;101273.34;4954559;28;20043;-49
2021/03/24 10:50:42;;;;;;;5.85;1.85;;;15.90;44.70;;;15.52;31.06;101275.72;4891697;29;20150;-50
2021/03/24 10:53:21;;;;;;;6.85;1.88;;;15.80;45.30;;;15.55;29.89;101265.72;4876590;29;20096;-53
2021/03/24 10:56:14;;;;;;;6.28;2.05;;;16.00;45.30;;;15.33;30.26;101266.25;4894745;29;20060;-50
2021/03/24 10:58:58;;;;;;;19.25;3.45;;;15.80;44.40;;;15.54;30.68;101260.63;4893172;29;20047;-54
2021/03/24 11:01:54;;;;;;;5.53;2.67;;;15.90;44.90;;;15.72;30.11;101256.13;4897320;29;20040;-54
2021/03/24 11:04:46;;;;;;;9.95;2.53;;;16.00;44.40;;;15.90;29.77;101259.47;4903171;29;20094;-53
2021/03/24 11:07:17;;;;;;;6.97;3.45;;;16.10;45.00;;;15.83;30.57;101257.63;4908553;29;20050;-50
2021/03/24 11:09:53;;;;;;;6.53;2.47;;;16.20;44.70;;;15.96;29.40;101241.41;4901143;29;20135;-56
2021/03/24 11:12:45;;;;;;;6.47;2.90;;;16.30;44.40;;;15.86;30.52;101249.44;4904337;29;20159;-58
2021/03/24 11:15:28;;;;;;;5.00;3.00;;;16.20;44.70;;;16.01;30.60;101242.59;4901176;29;20127;-53
2021/03/24 11:18:09;;;;;;;8.77;2.80;;;16.30;44.60;;;16.16;30.90;101243.56;4909068;29;20040;-56
2021/03/24 11:20:49;;;;;;;8.65;3.20;;;16.50;45.30;;;16.32;31.40;101236.69;4889963;29;20044;-54
2021/03/24 11:23:42;;;;;;;4.82;2.38;;;16.60;46.00;;;16.15;30.70;101233.22;4896808;28;20049;-49
2021/03/24 11:26:31;;;;;;;8.07;3.08;;;16.60;45.10;;;16.08;31.66;101227.78;4988590;28;20097;-49